鉅亨網鉅亨網

  • 企業盈餘低於市場預期
日期
(Date)
企業
(Company)
代碼
(Symbol)
低於預測%
(%Surprise)
每股盈餘
(Reported EPS)
預估EPS
(Consensus EPS)
2017/1/18 CSX Corporation CSX -2 0.49 0.5
2017/1/18 New Oriental Education & Techno EDU -12.5 0.07 0.08
2017/1/18 Interactive Brokers Group, Inc. IBKR -5.88 0.16 0.17
2017/1/18 Pinnacle Financial Partners, In PNFP -3.7 0.78 0.81
2017/1/17 B.R.A.I.N. NA BNN.F -50 -0.15 -0.1
2017/1/17 DCB BANK LIMITED INR10 DCBBANK.NS -0.56 1.77 1.78
2017/1/14 CYIENT LIMITED INR5 CYIENT.NS -7.42 8.36 9.03
2017/1/14 FuelCell Energy, Inc. FCEL -10.81 -0.41 -0.37
2017/1/12 CORUS ENTERTAINMNT CLASS B NO CJREF -6.82 0.41 0.44
2017/1/12 DRAGONWAVE INC. DWI.TO -41.18 -0.72 -0.51
2017/1/12 Saratoga Investment Corp New SAR -58.46 0.27 0.65
2017/1/12 SuperValu Inc. Common Stock SVU -61.54 0.05 0.13
2017/1/7 Aehr Test Systems AEHR -14.29 -0.08 -0.07
2017/1/7 Franklin Covey Company Common S FC -70.59 -0.29 -0.17
2017/1/7 Park Electrochemical Corporatio PKE -16.67 0.1 0.12
2017/1/7 PriceSmart, Inc. PSMT -2.38 0.82 0.84
2017/1/7 RPM International Inc. Common S RPM -14.75 0.52 0.61
2017/1/5 Mistras Group Inc Common Stock MG -12.9 0.27 0.31
2017/1/5 Resources Connection, Inc. RECN -5.26 0.18 0.19
2017/1/5 Unifirst Corporation Common Sto UNF -12.1 1.38 1.57
2017/1/4 iPath Series B S&P GSCI Crude O OILB -3.89 49.45 51.45
2017/1/4 SILVERCREST METALS INC SIL.V -8.5 17 18.58
2017/1/3 iPath Series B S&P GSCI Crude O OILB -3.89 49.45 51.45
2017/1/3 SILVERCREST METALS INC SIL.V -8.5 17 18.58
2016/12/31 ELECTROVAYA INC. EFL.TO -100 -0.06 -0.03
2016/12/29 Strongbridge Biopharma plc - Or SBBP -32.61 -0.61 -0.46
2016/12/24 Cintas Corporation CTAS -1.74 1.13 1.15
2016/12/24 Rite Aid Corporation Common Sto RAD -75 0.01 0.04
2016/12/22 FedEx Corporation Common Stock FDX -3.45 2.8 2.9
2016/12/22 General Mills, Inc. Common Stoc GIS -1.16 0.85 0.86
Loading Loading...

  第  頁  

© Copyright 2000- cnYES.com All rights reserved. 線上客服簡訊聯絡客服
集團資源:鉅亨台北Blog手機版鉅亨網FB